sensor_id;sensor_type;location;lat;lon;timestamp;temperature;humidity
68139;DHT22;54940;50.842;4.410;2023-07-29T00:01:55;20.10;99.90
68139;DHT22;54940;50.842;4.410;2023-07-29T00:04:21;20.20;99.90
68139;DHT22;54940;50.842;4.410;2023-07-29T00:06:47;20.10;99.90
68139;DHT22;54940;50.842;4.410;2023-07-29T00:09:12;20.20;99.90
68139;DHT22;54940;50.842;4.410;2023-07-29T00:11:38;20.10;99.90
68139;DHT22;54940;50.842;4.410;2023-07-29T00:14:03;19.90;99.90
68139;DHT22;54940;50.842;4.410;2023-07-29T00:16:29;19.80;99.90
68139;DHT22;54940;50.842;4.410;2023-07-29T00:18:55;19.80;99.90
68139;DHT22;54940;50.842;4.410;2023-07-29T00:21:21;19.70;99.90
68139;DHT22;54940;50.842;4.410;2023-07-29T00:23:46;19.80;99.90
68139;DHT22;54940;50.842;4.410;2023-07-29T00:26:12;19.80;99.90
68139;DHT22;54940;50.842;4.410;2023-07-29T00:28:38;19.70;99.90
68139;DHT22;54940;50.842;4.410;2023-07-29T00:31:03;19.70;99.90
68139;DHT22;54940;50.842;4.410;2023-07-29T00:33:29;19.70;99.90
68139;DHT22;54940;50.842;4.410;2023-07-29T00:35:55;19.60;99.90
68139;DHT22;54940;50.842;4.410;2023-07-29T00:38:20;19.50;99.90
68139;DHT22;54940;50.842;4.410;2023-07-29T00:40:46;19.50;99.90
68139;DHT22;54940;50.842;4.410;2023-07-29T00:43:12;19.50;99.90
68139;DHT22;54940;50.842;4.410;2023-07-29T00:45:42;19.50;99.90
68139;DHT22;54940;50.842;4.410;2023-07-29T00:48:08;19.40;99.90
68139;DHT22;54940;50.842;4.410;2023-07-29T00:50:34;19.40;99.90
68139;DHT22;54940;50.842;4.410;2023-07-29T00:53:00;19.40;99.90
68139;DHT22;54940;50.842;4.410;2023-07-29T00:55:26;19.40;99.90
68139;DHT22;54940;50.842;4.410;2023-07-29T00:57:52;19.40;99.90
68139;DHT22;54940;50.842;4.410;2023-07-29T01:00:20;19.40;99.90
68139;DHT22;54940;50.842;4.410;2023-07-29T01:02:45;19.30;99.90
68139;DHT22;54940;50.842;4.410;2023-07-29T01:05:13;19.30;99.90
68139;DHT22;54940;50.842;4.410;2023-07-29T01:08:05;19.30;99.90
68139;DHT22;54940;50.842;4.410;2023-07-29T01:15:57;19.40;99.90
68139;DHT22;54940;50.842;4.410;2023-07-29T01:18:30;19.60;99.90
68139;DHT22;54940;50.842;4.410;2023-07-29T01:20:59;19.50;99.90
68139;DHT22;54940;50.842;4.410;2023-07-29T01:23:32;19.50;99.90
68139;DHT22;54940;50.842;4.410;2023-07-29T01:25:58;19.50;99.90
68139;DHT22;54940;50.842;4.410;2023-07-29T01:28:27;19.50;99.90
68139;DHT22;54940;50.842;4.410;2023-07-29T01:31:16;19.50;99.90
68139;DHT22;54940;50.842;4.410;2023-07-29T01:33:56;19.40;99.90
68139;DHT22;54940;50.842;4.410;2023-07-29T01:36:27;19.30;99.90
68139;DHT22;54940;50.842;4.410;2023-07-29T01:38:57;19.30;99.90
68139;DHT22;54940;50.842;4.410;2023-07-29T01:41:24;19.30;99.90
68139;DHT22;54940;50.842;4.410;2023-07-29T01:43:50;19.30;99.90
68139;DHT22;54940;50.842;4.410;2023-07-29T01:46:17;19.30;99.90
68139;DHT22;54940;50.842;4.410;2023-07-29T01:48:43;19.30;99.90
68139;DHT22;54940;50.842;4.410;2023-07-29T01:51:11;19.30;99.90
68139;DHT22;54940;50.842;4.410;2023-07-29T01:53:37;19.30;99.90
68139;DHT22;54940;50.842;4.410;2023-07-29T01:56:03;19.30;99.90
68139;DHT22;54940;50.842;4.410;2023-07-29T01:58:28;19.30;99.90
68139;DHT22;54940;50.842;4.410;2023-07-29T02:00:54;19.20;99.90
68139;DHT22;54940;50.842;4.410;2023-07-29T02:03:20;19.20;99.90
68139;DHT22;54940;50.842;4.410;2023-07-29T02:05:46;19.10;99.90
68139;DHT22;54940;50.842;4.410;2023-07-29T02:08:11;19.00;99.90
68139;DHT22;54940;50.842;4.410;2023-07-29T02:10:37;19.00;99.90
68139;DHT22;54940;50.842;4.410;2023-07-29T02:13:03;18.90;99.90
68139;DHT22;54940;50.842;4.410;2023-07-29T02:15:29;19.00;99.90
68139;DHT22;54940;50.842;4.410;2023-07-29T02:17:55;18.90;99.90
68139;DHT22;54940;50.842;4.410;2023-07-29T02:20:21;19.00;99.90
68139;DHT22;54940;50.842;4.410;2023-07-29T02:22:46;19.00;99.90
68139;DHT22;54940;50.842;4.410;2023-07-29T02:25:16;19.00;99.90
68139;DHT22;54940;50.842;4.410;2023-07-29T02:27:42;19.10;99.90
68139;DHT22;54940;50.842;4.410;2023-07-29T02:30:08;18.90;99.90
68139;DHT22;54940;50.842;4.410;2023-07-29T02:32:35;19.00;99.90
68139;DHT22;54940;50.842;4.410;2023-07-29T02:35:03;18.90;99.90
68139;DHT22;54940;50.842;4.410;2023-07-29T02:37:29;18.90;99.90
68139;DHT22;54940;50.842;4.410;2023-07-29T02:39:56;18.90;99.90
68139;DHT22;54940;50.842;4.410;2023-07-29T02:42:22;18.80;99.90
68139;DHT22;54940;50.842;4.410;2023-07-29T02:44:48;18.80;99.90
68139;DHT22;54940;50.842;4.410;2023-07-29T02:47:18;18.70;99.90
68139;DHT22;54940;50.842;4.410;2023-07-29T02:49:46;18.80;99.90
68139;DHT22;54940;50.842;4.410;2023-07-29T02:52:11;18.80;99.90
68139;DHT22;54940;50.842;4.410;2023-07-29T02:54:37;18.80;99.90
68139;DHT22;54940;50.842;4.410;2023-07-29T02:57:03;18.80;99.90
68139;DHT22;54940;50.842;4.410;2023-07-29T02:59:32;18.80;99.90
68139;DHT22;54940;50.842;4.410;2023-07-29T03:01:58;18.80;99.90
68139;DHT22;54940;50.842;4.410;2023-07-29T03:04:23;18.90;99.90
68139;DHT22;54940;50.842;4.410;2023-07-29T03:06:51;18.90;99.90
68139;DHT22;54940;50.842;4.410;2023-07-29T03:09:17;18.90;99.90
68139;DHT22;54940;50.842;4.410;2023-07-29T03:11:43;18.90;99.90
68139;DHT22;54940;50.842;4.410;2023-07-29T03:14:08;18.80;99.90
68139;DHT22;54940;50.842;4.410;2023-07-29T03:16:34;18.70;99.90
68139;DHT22;54940;50.842;4.410;2023-07-29T03:18:59;18.60;99.90
68139;DHT22;54940;50.842;4.410;2023-07-29T03:21:25;18.60;99.90
68139;DHT22;54940;50.842;4.410;2023-07-29T03:23:52;18.60;99.90
68139;DHT22;54940;50.842;4.410;2023-07-29T03:26:17;18.70;99.90
68139;DHT22;54940;50.842;4.410;2023-07-29T03:28:43;18.60;99.90
68139;DHT22;54940;50.842;4.410;2023-07-29T03:31:10;18.60;99.90
68139;DHT22;54940;50.842;4.410;2023-07-29T03:33:36;18.60;99.90
68139;DHT22;54940;50.842;4.410;2023-07-29T03:36:01;18.60;99.90
68139;DHT22;54940;50.842;4.410;2023-07-29T03:38:29;18.60;99.90
68139;DHT22;54940;50.842;4.410;2023-07-29T03:40:57;18.60;99.90
68139;DHT22;54940;50.842;4.410;2023-07-29T03:43:22;18.60;99.90
68139;DHT22;54940;50.842;4.410;2023-07-29T03:45:48;18.60;99.90
68139;DHT22;54940;50.842;4.410;2023-07-29T03:48:14;18.60;99.90
68139;DHT22;54940;50.842;4.410;2023-07-29T03:50:39;18.50;99.90
68139;DHT22;54940;50.842;4.410;2023-07-29T03:53:05;18.60;99.90
68139;DHT22;54940;50.842;4.410;2023-07-29T03:55:31;18.50;99.90
68139;DHT22;54940;50.842;4.410;2023-07-29T03:58:00;18.40;99.90
68139;DHT22;54940;50.842;4.410;2023-07-29T04:00:26;18.40;99.90
68139;DHT22;54940;50.842;4.410;2023-07-29T04:02:52;18.40;99.90
68139;DHT22;54940;50.842;4.410;2023-07-29T04:05:18;18.50;99.90
68139;DHT22;54940;50.842;4.410;2023-07-29T04:07:44;18.50;99.90
68139;DHT22;54940;50.842;4.410;2023-07-29T04:10:12;18.40;99.90
68139;DHT22;54940;50.842;4.410;2023-07-29T04:12:40;18.40;99.90
68139;DHT22;54940;50.842;4.410;2023-07-29T04:15:06;18.40;99.90
68139;DHT22;54940;50.842;4.410;2023-07-29T04:17:32;18.30;99.90
68139;DHT22;54940;50.842;4.410;2023-07-29T04:19:58;18.30;99.90
68139;DHT22;54940;50.842;4.410;2023-07-29T04:22:23;18.40;99.90
68139;DHT22;54940;50.842;4.410;2023-07-29T04:24:49;18.30;99.90
68139;DHT22;54940;50.842;4.410;2023-07-29T04:27:15;18.40;99.90
68139;DHT22;54940;50.842;4.410;2023-07-29T04:29:40;18.40;99.90
68139;DHT22;54940;50.842;4.410;2023-07-29T04:32:06;18.30;99.90
68139;DHT22;54940;50.842;4.410;2023-07-29T04:34:32;18.30;99.90
68139;DHT22;54940;50.842;4.410;2023-07-29T04:36:58;18.30;99.90
68139;DHT22;54940;50.842;4.410;2023-07-29T04:39:23;18.30;99.90
68139;DHT22;54940;50.842;4.410;2023-07-29T04:41:51;18.30;99.90
68139;DHT22;54940;50.842;4.410;2023-07-29T04:44:17;18.30;99.90
68139;DHT22;54940;50.842;4.410;2023-07-29T04:46:43;18.30;99.90
68139;DHT22;54940;50.842;4.410;2023-07-29T04:49:08;18.40;99.90
68139;DHT22;54940;50.842;4.410;2023-07-29T04:51:34;18.30;99.90
68139;DHT22;54940;50.842;4.410;2023-07-29T04:54:00;18.30;99.90
68139;DHT22;54940;50.842;4.410;2023-07-29T04:56:28;18.30;99.90
68139;DHT22;54940;50.842;4.410;2023-07-29T04:58:53;18.20;99.90
68139;DHT22;54940;50.842;4.410;2023-07-29T05:01:21;18.30;99.90
68139;DHT22;54940;50.842;4.410;2023-07-29T05:03:50;18.20;99.90
68139;DHT22;54940;50.842;4.410;2023-07-29T05:06:18;18.20;99.90
68139;DHT22;54940;50.842;4.410;2023-07-29T05:08:44;18.20;99.90
68139;DHT22;54940;50.842;4.410;2023-07-29T05:11:10;18.20;99.90
68139;DHT22;54940;50.842;4.410;2023-07-29T05:13:36;18.20;99.90
68139;DHT22;54940;50.842;4.410;2023-07-29T05:16:02;18.20;99.90
68139;DHT22;54940;50.842;4.410;2023-07-29T05:18:27;18.30;99.90
68139;DHT22;54940;50.842;4.410;2023-07-29T05:20:55;18.70;99.90
68139;DHT22;54940;50.842;4.410;2023-07-29T05:23:21;19.60;99.90
68139;DHT22;54940;50.842;4.410;2023-07-29T05:25:50;20.50;99.90
68139;DHT22;54940;50.842;4.410;2023-07-29T05:28:15;20.80;99.90
68139;DHT22;54940;50.842;4.410;2023-07-29T05:30:43;21.30;99.90
68139;DHT22;54940;50.842;4.410;2023-07-29T05:33:11;21.60;99.90
68139;DHT22;54940;50.842;4.410;2023-07-29T05:35:37;21.30;99.90
68139;DHT22;54940;50.842;4.410;2023-07-29T05:38:05;20.80;99.90
68139;DHT22;54940;50.842;4.410;2023-07-29T05:40:33;20.30;99.90
68139;DHT22;54940;50.842;4.410;2023-07-29T05:42:59;19.90;99.90
68139;DHT22;54940;50.842;4.410;2023-07-29T05:45:25;19.70;99.90
68139;DHT22;54940;50.842;4.410;2023-07-29T05:47:50;20.40;99.90
68139;DHT22;54940;50.842;4.410;2023-07-29T05:50:16;21.30;99.90
68139;DHT22;54940;50.842;4.410;2023-07-29T05:52:42;22.10;99.90
68139;DHT22;54940;50.842;4.410;2023-07-29T05:55:07;22.90;99.90
68139;DHT22;54940;50.842;4.410;2023-07-29T05:57:33;23.40;99.90
68139;DHT22;54940;50.842;4.410;2023-07-29T05:59:59;23.80;99.90
68139;DHT22;54940;50.842;4.410;2023-07-29T06:02:24;23.60;99.90
68139;DHT22;54940;50.842;4.410;2023-07-29T06:04:50;22.80;99.90
68139;DHT22;54940;50.842;4.410;2023-07-29T06:07:16;22.30;99.90
68139;DHT22;54940;50.842;4.410;2023-07-29T06:09:41;21.80;99.90
68139;DHT22;54940;50.842;4.410;2023-07-29T06:12:07;21.50;99.90
68139;DHT22;54940;50.842;4.410;2023-07-29T06:14:33;21.30;99.90
68139;DHT22;54940;50.842;4.410;2023-07-29T06:16:59;21.40;99.90
68139;DHT22;54940;50.842;4.410;2023-07-29T06:19:25;21.80;99.90
68139;DHT22;54940;50.842;4.410;2023-07-29T06:21:51;22.20;99.90
68139;DHT22;54940;50.842;4.410;2023-07-29T06:24:20;22.90;99.90
68139;DHT22;54940;50.842;4.410;2023-07-29T06:26:45;23.60;99.90
68139;DHT22;54940;50.842;4.410;2023-07-29T06:29:11;23.90;99.90
68139;DHT22;54940;50.842;4.410;2023-07-29T06:31:37;23.50;99.90
68139;DHT22;54940;50.842;4.410;2023-07-29T06:34:02;22.80;99.90
68139;DHT22;54940;50.842;4.410;2023-07-29T06:36:28;22.10;99.90
68139;DHT22;54940;50.842;4.410;2023-07-29T06:38:54;21.80;99.90
68139;DHT22;54940;50.842;4.410;2023-07-29T06:41:19;21.70;99.90
68139;DHT22;54940;50.842;4.410;2023-07-29T06:43:45;21.80;99.90
68139;DHT22;54940;50.842;4.410;2023-07-29T06:46:10;22.00;99.90
68139;DHT22;54940;50.842;4.410;2023-07-29T06:48:36;22.50;99.90
68139;DHT22;54940;50.842;4.410;2023-07-29T06:51:02;22.90;99.90
68139;DHT22;54940;50.842;4.410;2023-07-29T06:53:28;22.90;99.90
68139;DHT22;54940;50.842;4.410;2023-07-29T06:55:53;22.90;99.90
68139;DHT22;54940;50.842;4.410;2023-07-29T06:58:19;22.70;99.90
68139;DHT22;54940;50.842;4.410;2023-07-29T07:00:45;22.60;99.90
68139;DHT22;54940;50.842;4.410;2023-07-29T07:03:11;22.10;99.90
68139;DHT22;54940;50.842;4.410;2023-07-29T07:05:39;21.80;99.90
68139;DHT22;54940;50.842;4.410;2023-07-29T07:08:07;21.50;99.90
68139;DHT22;54940;50.842;4.410;2023-07-29T07:10:32;21.30;99.90
68139;DHT22;54940;50.842;4.410;2023-07-29T07:12:59;21.20;99.90
68139;DHT22;54940;50.842;4.410;2023-07-29T07:15:25;21.00;99.90
68139;DHT22;54940;50.842;4.410;2023-07-29T07:17:51;20.80;99.90
68139;DHT22;54940;50.842;4.410;2023-07-29T07:20:17;20.70;99.90
68139;DHT22;54940;50.842;4.410;2023-07-29T07:22:42;20.60;99.90
68139;DHT22;54940;50.842;4.410;2023-07-29T07:25:08;20.60;99.90
68139;DHT22;54940;50.842;4.410;2023-07-29T07:27:36;20.60;99.90
68139;DHT22;54940;50.842;4.410;2023-07-29T07:30:05;20.70;99.90
68139;DHT22;54940;50.842;4.410;2023-07-29T07:32:31;20.70;99.90
68139;DHT22;54940;50.842;4.410;2023-07-29T07:34:58;20.60;99.90
68139;DHT22;54940;50.842;4.410;2023-07-29T07:37:24;20.60;99.90
68139;DHT22;54940;50.842;4.410;2023-07-29T07:39:50;20.60;99.90
68139;DHT22;54940;50.842;4.410;2023-07-29T07:42:15;20.50;99.90
68139;DHT22;54940;50.842;4.410;2023-07-29T07:44:41;20.40;99.90
68139;DHT22;54940;50.842;4.410;2023-07-29T07:47:06;20.30;99.90
68139;DHT22;54940;50.842;4.410;2023-07-29T07:49:32;20.40;99.90
68139;DHT22;54940;50.842;4.410;2023-07-29T07:51:58;20.60;99.90
68139;DHT22;54940;50.842;4.410;2023-07-29T07:54:23;20.80;99.90
68139;DHT22;54940;50.842;4.410;2023-07-29T07:56:49;20.90;99.90
68139;DHT22;54940;50.842;4.410;2023-07-29T07:59:14;20.80;99.90
68139;DHT22;54940;50.842;4.410;2023-07-29T08:01:40;20.70;99.90
68139;DHT22;54940;50.842;4.410;2023-07-29T08:04:06;20.70;99.90
68139;DHT22;54940;50.842;4.410;2023-07-29T08:06:32;20.80;99.90
68139;DHT22;54940;50.842;4.410;2023-07-29T08:08:58;20.80;99.90
68139;DHT22;54940;50.842;4.410;2023-07-29T08:11:25;20.90;99.90
68139;DHT22;54940;50.842;4.410;2023-07-29T08:13:50;21.30;99.90
68139;DHT22;54940;50.842;4.410;2023-07-29T08:16:16;21.90;99.90
68139;DHT22;54940;50.842;4.410;2023-07-29T08:18:41;22.40;99.90
68139;DHT22;54940;50.842;4.410;2023-07-29T08:21:07;22.90;99.90
68139;DHT22;54940;50.842;4.410;2023-07-29T08:23:34;23.00;99.90
68139;DHT22;54940;50.842;4.410;2023-07-29T08:26:03;22.90;99.90
68139;DHT22;54940;50.842;4.410;2023-07-29T08:28:48;22.80;99.90
68139;DHT22;54940;50.842;4.410;2023-07-29T08:31:14;22.90;99.90
68139;DHT22;54940;50.842;4.410;2023-07-29T08:33:39;22.90;99.90
68139;DHT22;54940;50.842;4.410;2023-07-29T08:36:05;22.70;99.90
68139;DHT22;54940;50.842;4.410;2023-07-29T08:38:30;22.90;99.90
68139;DHT22;54940;50.842;4.410;2023-07-29T08:41:41;22.90;99.90
68139;DHT22;54940;50.842;4.410;2023-07-29T08:46:33;22.90;99.90
68139;DHT22;54940;50.842;4.410;2023-07-29T08:48:59;23.40;99.90
68139;DHT22;54940;50.842;4.410;2023-07-29T08:51:27;23.70;99.90
68139;DHT22;54940;50.842;4.410;2023-07-29T08:53:53;23.70;99.90
68139;DHT22;54940;50.842;4.410;2023-07-29T08:56:19;23.70;99.90
68139;DHT22;54940;50.842;4.410;2023-07-29T08:58:50;23.60;99.90
68139;DHT22;54940;50.842;4.410;2023-07-29T09:01:19;24.00;99.90
68139;DHT22;54940;50.842;4.410;2023-07-29T09:03:44;24.30;99.90
68139;DHT22;54940;50.842;4.410;2023-07-29T09:06:11;24.70;99.90
68139;DHT22;54940;50.842;4.410;2023-07-29T09:08:37;24.70;99.90
68139;DHT22;54940;50.842;4.410;2023-07-29T09:11:03;24.90;99.90
68139;DHT22;54940;50.842;4.410;2023-07-29T09:13:31;24.90;99.90
68139;DHT22;54940;50.842;4.410;2023-07-29T09:15:57;25.00;99.90
68139;DHT22;54940;50.842;4.410;2023-07-29T09:18:23;25.00;99.90
68139;DHT22;54940;50.842;4.410;2023-07-29T09:20:53;24.60;99.90
68139;DHT22;54940;50.842;4.410;2023-07-29T09:23:19;24.50;99.90
68139;DHT22;54940;50.842;4.410;2023-07-29T09:25:48;24.20;99.90
68139;DHT22;54940;50.842;4.410;2023-07-29T09:28:15;24.00;99.90
68139;DHT22;54940;50.842;4.410;2023-07-29T09:30:42;24.00;99.90
68139;DHT22;54940;50.842;4.410;2023-07-29T09:33:09;23.70;99.90
68139;DHT22;54940;50.842;4.410;2023-07-29T09:35:36;23.70;99.90
68139;DHT22;54940;50.842;4.410;2023-07-29T09:38:03;23.80;99.90
68139;DHT22;54940;50.842;4.410;2023-07-29T09:40:39;24.20;99.90
68139;DHT22;54940;50.842;4.410;2023-07-29T09:43:06;24.10;99.90
68139;DHT22;54940;50.842;4.410;2023-07-29T09:45:36;23.90;99.90
68139;DHT22;54940;50.842;4.410;2023-07-29T09:48:04;23.60;99.90
68139;DHT22;54940;50.842;4.410;2023-07-29T09:50:35;23.30;99.90
68139;DHT22;54940;50.842;4.410;2023-07-29T09:53:03;23.10;99.90
68139;DHT22;54940;50.842;4.410;2023-07-29T09:55:33;23.10;99.90
68139;DHT22;54940;50.842;4.410;2023-07-29T09:58:02;22.80;99.90
68139;DHT22;54940;50.842;4.410;2023-07-29T10:00:31;22.90;99.90
68139;DHT22;54940;50.842;4.410;2023-07-29T10:02:58;22.90;99.90
68139;DHT22;54940;50.842;4.410;2023-07-29T10:05:26;23.50;99.90
68139;DHT22;54940;50.842;4.410;2023-07-29T10:07:54;24.00;99.90
68139;DHT22;54940;50.842;4.410;2023-07-29T10:10:23;24.40;99.90
68139;DHT22;54940;50.842;4.410;2023-07-29T10:12:49;24.30;99.90
68139;DHT22;54940;50.842;4.410;2023-07-29T10:15:18;24.10;99.90
68139;DHT22;54940;50.842;4.410;2023-07-29T10:17:46;23.70;99.90
68139;DHT22;54940;50.842;4.410;2023-07-29T10:20:11;23.60;99.90
68139;DHT22;54940;50.842;4.410;2023-07-29T10:22:42;23.40;99.90
68139;DHT22;54940;50.842;4.410;2023-07-29T10:25:18;23.80;99.90
68139;DHT22;54940;50.842;4.410;2023-07-29T10:30:12;23.70;99.90
68139;DHT22;54940;50.842;4.410;2023-07-29T10:32:45;23.70;99.90
68139;DHT22;54940;50.842;4.410;2023-07-29T10:35:14;23.60;99.90
68139;DHT22;54940;50.842;4.410;2023-07-29T10:37:41;23.30;99.90
68139;DHT22;54940;50.842;4.410;2023-07-29T10:40:09;23.20;99.90
68139;DHT22;54940;50.842;4.410;2023-07-29T10:42:36;22.80;99.90
68139;DHT22;54940;50.842;4.410;2023-07-29T10:45:21;22.40;99.90
68139;DHT22;54940;50.842;4.410;2023-07-29T10:47:49;22.50;99.90
68139;DHT22;54940;50.842;4.410;2023-07-29T10:50:22;22.40;99.90
68139;DHT22;54940;50.842;4.410;2023-07-29T10:52:52;22.40;99.90
68139;DHT22;54940;50.842;4.410;2023-07-29T10:55:32;22.50;99.90
68139;DHT22;54940;50.842;4.410;2023-07-29T10:58:27;22.60;99.90
68139;DHT22;54940;50.842;4.410;2023-07-29T11:00:55;22.50;99.90
68139;DHT22;54940;50.842;4.410;2023-07-29T11:03:21;22.40;99.90
68139;DHT22;54940;50.842;4.410;2023-07-29T11:05:50;22.20;99.90
68139;DHT22;54940;50.842;4.410;2023-07-29T11:11:04;22.20;99.90
68139;DHT22;54940;50.842;4.410;2023-07-29T11:13:33;22.20;99.90
68139;DHT22;54940;50.842;4.410;2023-07-29T11:15:59;22.20;99.90
68139;DHT22;54940;50.842;4.410;2023-07-29T11:18:31;22.20;99.90
68139;DHT22;54940;50.842;4.410;2023-07-29T11:21:00;22.00;99.90
68139;DHT22;54940;50.842;4.410;2023-07-29T11:23:33;21.70;99.90
68139;DHT22;54940;50.842;4.410;2023-07-29T11:26:00;21.60;99.90
68139;DHT22;54940;50.842;4.410;2023-07-29T11:28:27;21.50;99.90
68139;DHT22;54940;50.842;4.410;2023-07-29T11:30:55;21.50;99.90
68139;DHT22;54940;50.842;4.410;2023-07-29T11:33:25;21.50;99.90
68139;DHT22;54940;50.842;4.410;2023-07-29T11:35:52;21.40;99.90
68139;DHT22;54940;50.842;4.410;2023-07-29T11:38:19;21.40;99.90
68139;DHT22;54940;50.842;4.410;2023-07-29T11:41:01;21.40;99.90
68139;DHT22;54940;50.842;4.410;2023-07-29T11:43:36;21.70;99.90
68139;DHT22;54940;50.842;4.410;2023-07-29T11:46:02;21.90;99.90
68139;DHT22;54940;50.842;4.410;2023-07-29T11:48:31;22.10;99.90
68139;DHT22;54940;50.842;4.410;2023-07-29T11:50:57;22.40;99.90
68139;DHT22;54940;50.842;4.410;2023-07-29T11:53:27;22.40;99.90
68139;DHT22;54940;50.842;4.410;2023-07-29T11:55:53;22.90;99.90
68139;DHT22;54940;50.842;4.410;2023-07-29T11:58:20;23.40;99.90
68139;DHT22;54940;50.842;4.410;2023-07-29T12:00:46;23.80;99.90
68139;DHT22;54940;50.842;4.410;2023-07-29T12:03:12;23.80;99.90
68139;DHT22;54940;50.842;4.410;2023-07-29T12:05:38;23.40;99.90
68139;DHT22;54940;50.842;4.410;2023-07-29T12:08:04;23.20;99.90
68139;DHT22;54940;50.842;4.410;2023-07-29T12:10:30;23.00;99.90
68139;DHT22;54940;50.842;4.410;2023-07-29T12:12:56;22.80;99.90
68139;DHT22;54940;50.842;4.410;2023-07-29T12:15:26;22.50;99.90
68139;DHT22;54940;50.842;4.410;2023-07-29T12:17:56;22.30;99.90
68139;DHT22;54940;50.842;4.410;2023-07-29T12:20:22;22.10;99.90
68139;DHT22;54940;50.842;4.410;2023-07-29T12:22:55;22.10;99.90
68139;DHT22;54940;50.842;4.410;2023-07-29T12:25:21;22.00;99.90
68139;DHT22;54940;50.842;4.410;2023-07-29T12:27:47;21.90;99.90
68139;DHT22;54940;50.842;4.410;2023-07-29T12:30:13;21.90;99.90
68139;DHT22;54940;50.842;4.410;2023-07-29T12:32:45;21.80;99.90
68139;DHT22;54940;50.842;4.410;2023-07-29T12:35:12;21.70;99.90
68139;DHT22;54940;50.842;4.410;2023-07-29T12:37:38;21.50;99.90
68139;DHT22;54940;50.842;4.410;2023-07-29T12:40:08;21.50;99.90
68139;DHT22;54940;50.842;4.410;2023-07-29T12:42:34;21.60;99.90
68139;DHT22;54940;50.842;4.410;2023-07-29T12:44:59;21.80;99.90
68139;DHT22;54940;50.842;4.410;2023-07-29T12:47:25;22.10;99.90
68139;DHT22;54940;50.842;4.410;2023-07-29T12:49:50;22.40;99.90
68139;DHT22;54940;50.842;4.410;2023-07-29T12:52:19;22.60;99.90
68139;DHT22;54940;50.842;4.410;2023-07-29T12:54:45;22.80;99.90
68139;DHT22;54940;50.842;4.410;2023-07-29T12:57:10;22.90;99.90
68139;DHT22;54940;50.842;4.410;2023-07-29T12:59:36;23.10;99.90
68139;DHT22;54940;50.842;4.410;2023-07-29T13:02:02;23.20;99.90
68139;DHT22;54940;50.842;4.410;2023-07-29T13:04:27;23.30;99.90
68139;DHT22;54940;50.842;4.410;2023-07-29T13:06:53;23.40;99.90
68139;DHT22;54940;50.842;4.410;2023-07-29T13:09:19;23.70;99.90
68139;DHT22;54940;50.842;4.410;2023-07-29T13:11:44;23.90;99.90
68139;DHT22;54940;50.842;4.410;2023-07-29T13:14:10;24.10;99.90
68139;DHT22;54940;50.842;4.410;2023-07-29T13:16:35;24.30;99.90
68139;DHT22;54940;50.842;4.410;2023-07-29T13:19:01;24.30;99.90
68139;DHT22;54940;50.842;4.410;2023-07-29T13:21:27;24.10;99.90
68139;DHT22;54940;50.842;4.410;2023-07-29T13:23:52;23.90;99.90
68139;DHT22;54940;50.842;4.410;2023-07-29T13:26:18;23.80;99.90
68139;DHT22;54940;50.842;4.410;2023-07-29T13:28:44;23.70;99.90
68139;DHT22;54940;50.842;4.410;2023-07-29T13:31:09;23.50;99.90
68139;DHT22;54940;50.842;4.410;2023-07-29T13:33:35;23.40;99.90
68139;DHT22;54940;50.842;4.410;2023-07-29T13:36:01;23.50;99.90
68139;DHT22;54940;50.842;4.410;2023-07-29T13:38:30;23.80;99.90
68139;DHT22;54940;50.842;4.410;2023-07-29T13:40:56;24.10;99.90
68139;DHT22;54940;50.842;4.410;2023-07-29T13:43:21;24.20;99.90
68139;DHT22;54940;50.842;4.410;2023-07-29T13:45:47;24.00;99.90
68139;DHT22;54940;50.842;4.410;2023-07-29T13:48:14;24.00;99.90
68139;DHT22;54940;50.842;4.410;2023-07-29T13:50:40;24.10;99.90
68139;DHT22;54940;50.842;4.410;2023-07-29T13:53:06;24.10;99.90
68139;DHT22;54940;50.842;4.410;2023-07-29T13:55:32;24.00;99.90
68139;DHT22;54940;50.842;4.410;2023-07-29T13:57:58;23.80;99.90
68139;DHT22;54940;50.842;4.410;2023-07-29T14:00:23;23.60;99.90
68139;DHT22;54940;50.842;4.410;2023-07-29T14:02:49;23.30;99.90
68139;DHT22;54940;50.842;4.410;2023-07-29T14:05:15;23.10;99.90
68139;DHT22;54940;50.842;4.410;2023-07-29T14:07:40;22.90;99.90
68139;DHT22;54940;50.842;4.410;2023-07-29T14:10:06;22.90;99.90
68139;DHT22;54940;50.842;4.410;2023-07-29T14:12:32;23.30;99.90
68139;DHT22;54940;50.842;4.410;2023-07-29T14:14:58;23.60;99.90
68139;DHT22;54940;50.842;4.410;2023-07-29T14:17:23;23.90;99.90
68139;DHT22;54940;50.842;4.410;2023-07-29T14:19:49;24.10;99.90
68139;DHT22;54940;50.842;4.410;2023-07-29T14:22:14;24.00;99.90
68139;DHT22;54940;50.842;4.410;2023-07-29T14:24:40;24.10;99.90
68139;DHT22;54940;50.842;4.410;2023-07-29T14:27:06;24.30;99.90
68139;DHT22;54940;50.842;4.410;2023-07-29T14:29:31;24.40;99.90
68139;DHT22;54940;50.842;4.410;2023-07-29T14:31:59;24.50;99.90
68139;DHT22;54940;50.842;4.410;2023-07-29T14:34:25;24.70;99.90
68139;DHT22;54940;50.842;4.410;2023-07-29T14:36:50;24.60;99.90
68139;DHT22;54940;50.842;4.410;2023-07-29T14:39:16;24.90;99.90
68139;DHT22;54940;50.842;4.410;2023-07-29T14:41:42;24.80;99.90
68139;DHT22;54940;50.842;4.410;2023-07-29T14:44:07;24.70;99.90
68139;DHT22;54940;50.842;4.410;2023-07-29T14:46:33;24.30;99.90
68139;DHT22;54940;50.842;4.410;2023-07-29T14:48:58;24.10;99.90
68139;DHT22;54940;50.842;4.410;2023-07-29T14:51:24;24.10;99.90
68139;DHT22;54940;50.842;4.410;2023-07-29T14:53:50;23.90;99.90
68139;DHT22;54940;50.842;4.410;2023-07-29T14:56:15;23.80;99.90
68139;DHT22;54940;50.842;4.410;2023-07-29T14:58:43;23.80;99.90
68139;DHT22;54940;50.842;4.410;2023-07-29T15:01:09;23.70;99.90
68139;DHT22;54940;50.842;4.410;2023-07-29T15:03:34;23.70;99.90
68139;DHT22;54940;50.842;4.410;2023-07-29T15:06:00;23.80;99.90
68139;DHT22;54940;50.842;4.410;2023-07-29T15:08:26;23.90;99.90
68139;DHT22;54940;50.842;4.410;2023-07-29T15:10:52;23.90;99.90
68139;DHT22;54940;50.842;4.410;2023-07-29T15:13:19;23.90;99.90
68139;DHT22;54940;50.842;4.410;2023-07-29T15:15:45;24.10;99.90
68139;DHT22;54940;50.842;4.410;2023-07-29T15:18:11;24.00;99.90
68139;DHT22;54940;50.842;4.410;2023-07-29T15:20:36;24.00;99.90
68139;DHT22;54940;50.842;4.410;2023-07-29T15:23:02;23.90;99.90
68139;DHT22;54940;50.842;4.410;2023-07-29T15:25:28;23.70;99.90
68139;DHT22;54940;50.842;4.410;2023-07-29T15:27:54;23.50;99.90
68139;DHT22;54940;50.842;4.410;2023-07-29T15:30:23;23.40;99.90
68139;DHT22;54940;50.842;4.410;2023-07-29T15:32:49;23.40;99.90
68139;DHT22;54940;50.842;4.410;2023-07-29T15:35:14;23.50;99.90
68139;DHT22;54940;50.842;4.410;2023-07-29T15:37:42;23.30;99.90
68139;DHT22;54940;50.842;4.410;2023-07-29T15:40:08;23.30;99.90
68139;DHT22;54940;50.842;4.410;2023-07-29T15:42:34;23.20;99.90